sensor_id;sensor_type;location;lat;lon;timestamp;temperature;humidity
1594;DHT22;790;47.000;16.084;2024-03-02T00:06:04;8.60;99.90
1594;DHT22;790;47.000;16.084;2024-03-02T00:12:26;8.70;99.90
1594;DHT22;790;47.000;16.084;2024-03-02T00:18:48;8.80;99.90
1594;DHT22;790;47.000;16.084;2024-03-02T00:29:55;8.80;99.90
1594;DHT22;790;47.000;16.084;2024-03-02T00:36:22;8.80;99.90
1594;DHT22;790;47.000;16.084;2024-03-02T00:42:46;8.80;99.90
1594;DHT22;790;47.000;16.084;2024-03-02T00:49:18;8.90;99.90
1594;DHT22;790;47.000;16.084;2024-03-02T00:55:41;9.00;99.90
1594;DHT22;790;47.000;16.084;2024-03-02T01:02:08;9.10;99.90
1594;DHT22;790;47.000;16.084;2024-03-02T01:08:31;8.90;99.90
1594;DHT22;790;47.000;16.084;2024-03-02T01:14:54;8.70;99.90
1594;DHT22;790;47.000;16.084;2024-03-02T01:21:16;8.70;99.90
1594;DHT22;790;47.000;16.084;2024-03-02T01:32:38;8.60;99.90
1594;DHT22;790;47.000;16.084;2024-03-02T01:39:00;8.70;99.90
1594;DHT22;790;47.000;16.084;2024-03-02T01:45:23;8.80;99.90
1594;DHT22;790;47.000;16.084;2024-03-02T01:51:46;8.70;99.90
1594;DHT22;790;47.000;16.084;2024-03-02T01:58:09;8.70;99.90
1594;DHT22;790;47.000;16.084;2024-03-02T02:04:31;8.70;99.90
1594;DHT22;790;47.000;16.084;2024-03-02T02:10:56;8.60;99.90
1594;DHT22;790;47.000;16.084;2024-03-02T02:17:18;8.70;99.90
1594;DHT22;790;47.000;16.084;2024-03-02T02:23:41;8.70;99.90
1594;DHT22;790;47.000;16.084;2024-03-02T02:35:02;8.80;99.90
1594;DHT22;790;47.000;16.084;2024-03-02T02:41:27;8.80;99.90
1594;DHT22;790;47.000;16.084;2024-03-02T02:47:49;8.90;99.90
1594;DHT22;790;47.000;16.084;2024-03-02T02:54:11;8.90;99.90
1594;DHT22;790;47.000;16.084;2024-03-02T03:00:34;9.00;99.90
1594;DHT22;790;47.000;16.084;2024-03-02T03:06:57;9.00;99.90
1594;DHT22;790;47.000;16.084;2024-03-02T03:13:19;9.00;99.90
1594;DHT22;790;47.000;16.084;2024-03-02T03:19:43;9.00;99.90
1594;DHT22;790;47.000;16.084;2024-03-02T03:26:06;9.00;99.90
1594;DHT22;790;47.000;16.084;2024-03-02T03:37:24;9.10;99.90
1594;DHT22;790;47.000;16.084;2024-03-02T03:43:52;9.00;99.90
1594;DHT22;790;47.000;16.084;2024-03-02T03:50:15;9.00;99.90
1594;DHT22;790;47.000;16.084;2024-03-02T03:56:39;9.00;99.90
1594;DHT22;790;47.000;16.084;2024-03-02T04:03:01;8.90;99.90
1594;DHT22;790;47.000;16.084;2024-03-02T04:09:23;8.90;99.90
1594;DHT22;790;47.000;16.084;2024-03-02T04:15:48;8.80;99.90
1594;DHT22;790;47.000;16.084;2024-03-02T04:22:10;8.80;99.90
1594;DHT22;790;47.000;16.084;2024-03-02T04:28:32;8.90;99.90
1594;DHT22;790;47.000;16.084;2024-03-02T04:39:29;8.80;99.90
1594;DHT22;790;47.000;16.084;2024-03-02T04:45:52;8.80;99.90
1594;DHT22;790;47.000;16.084;2024-03-02T04:52:14;8.70;99.90
1594;DHT22;790;47.000;16.084;2024-03-02T04:58:38;8.80;99.90
1594;DHT22;790;47.000;16.084;2024-03-02T05:05:00;8.90;99.90
1594;DHT22;790;47.000;16.084;2024-03-02T05:11:22;8.90;99.90
1594;DHT22;790;47.000;16.084;2024-03-02T05:18:03;8.80;99.90
1594;DHT22;790;47.000;16.084;2024-03-02T05:24:26;9.00;99.90
1594;DHT22;790;47.000;16.084;2024-03-02T05:30:48;9.00;99.90
1594;DHT22;790;47.000;16.084;2024-03-02T05:41:46;8.90;99.90
1594;DHT22;790;47.000;16.084;2024-03-02T05:48:08;8.70;99.90
1594;DHT22;790;47.000;16.084;2024-03-02T05:54:30;8.80;99.90
1594;DHT22;790;47.000;16.084;2024-03-02T06:00:53;8.90;99.90
1594;DHT22;790;47.000;16.084;2024-03-02T06:07:15;9.00;99.90
1594;DHT22;790;47.000;16.084;2024-03-02T06:13:37;9.00;99.90
1594;DHT22;790;47.000;16.084;2024-03-02T06:20:01;9.10;99.90
1594;DHT22;790;47.000;16.084;2024-03-02T06:26:23;9.00;99.90
1594;DHT22;790;47.000;16.084;2024-03-02T06:32:45;8.90;99.90
1594;DHT22;790;47.000;16.084;2024-03-02T06:43:34;8.80;99.90
1594;DHT22;790;47.000;16.084;2024-03-02T06:49:56;8.80;99.90
1594;DHT22;790;47.000;16.084;2024-03-02T06:56:19;8.80;99.90
1594;DHT22;790;47.000;16.084;2024-03-02T07:02:43;8.70;99.90
1594;DHT22;790;47.000;16.084;2024-03-02T07:09:05;8.80;99.90
1594;DHT22;790;47.000;16.084;2024-03-02T07:15:31;9.00;99.90
1594;DHT22;790;47.000;16.084;2024-03-02T07:22:16;9.20;99.90
1594;DHT22;790;47.000;16.084;2024-03-02T07:28:38;9.30;99.90
1594;DHT22;790;47.000;16.084;2024-03-02T07:35:01;9.30;99.90
1594;DHT22;790;47.000;16.084;2024-03-02T07:46:10;9.40;99.90
1594;DHT22;790;47.000;16.084;2024-03-02T07:52:32;9.40;99.90
1594;DHT22;790;47.000;16.084;2024-03-02T07:58:54;9.00;99.90
1594;DHT22;790;47.000;16.084;2024-03-02T08:05:19;9.30;99.90
1594;DHT22;790;47.000;16.084;2024-03-02T08:11:41;9.50;99.90
1594;DHT22;790;47.000;16.084;2024-03-02T08:18:04;9.60;99.90
1594;DHT22;790;47.000;16.084;2024-03-02T08:24:27;9.70;99.90
1594;DHT22;790;47.000;16.084;2024-03-02T08:30:49;9.80;99.90
1594;DHT22;790;47.000;16.084;2024-03-02T08:37:13;9.90;99.90
1594;DHT22;790;47.000;16.084;2024-03-02T08:48:21;10.10;99.90
1594;DHT22;790;47.000;16.084;2024-03-02T08:54:44;10.10;99.90
1594;DHT22;790;47.000;16.084;2024-03-02T09:01:06;10.40;99.90
1594;DHT22;790;47.000;16.084;2024-03-02T09:07:31;10.40;99.90
1594;DHT22;790;47.000;16.084;2024-03-02T09:13:53;10.60;99.90
1594;DHT22;790;47.000;16.084;2024-03-02T09:20:18;10.70;99.90
1594;DHT22;790;47.000;16.084;2024-03-02T09:26:42;10.80;99.90
1594;DHT22;790;47.000;16.084;2024-03-02T09:33:05;11.10;99.90
1594;DHT22;790;47.000;16.084;2024-03-02T09:39:27;11.20;99.90
1594;DHT22;790;47.000;16.084;2024-03-02T09:50:35;11.30;99.90
1594;DHT22;790;47.000;16.084;2024-03-02T09:56:57;11.30;99.90
1594;DHT22;790;47.000;16.084;2024-03-02T10:03:23;11.50;99.90
1594;DHT22;790;47.000;16.084;2024-03-02T10:09:48;11.70;99.90
1594;DHT22;790;47.000;16.084;2024-03-02T10:16:13;11.80;99.90
1594;DHT22;790;47.000;16.084;2024-03-02T10:22:35;12.10;99.90
1594;DHT22;790;47.000;16.084;2024-03-02T10:28:59;12.20;99.90
1594;DHT22;790;47.000;16.084;2024-03-02T10:35:22;12.50;99.90
1594;DHT22;790;47.000;16.084;2024-03-02T10:41:47;12.50;99.90
1594;DHT22;790;47.000;16.084;2024-03-02T10:53:07;12.60;99.90
1594;DHT22;790;47.000;16.084;2024-03-02T10:59:36;12.70;99.90
1594;DHT22;790;47.000;16.084;2024-03-02T11:06:01;12.70;99.90
1594;DHT22;790;47.000;16.084;2024-03-02T11:12:29;12.80;99.90
1594;DHT22;790;47.000;16.084;2024-03-02T11:18:53;12.90;99.90
1594;DHT22;790;47.000;16.084;2024-03-02T11:25:25;13.10;99.90
1594;DHT22;790;47.000;16.084;2024-03-02T11:32:02;13.20;99.90
1594;DHT22;790;47.000;16.084;2024-03-02T11:38:31;13.40;99.90
1594;DHT22;790;47.000;16.084;2024-03-02T11:44:57;13.50;99.90
1594;DHT22;790;47.000;16.084;2024-03-02T11:56:17;13.70;99.90
1594;DHT22;790;47.000;16.084;2024-03-02T12:02:41;13.90;99.90
1594;DHT22;790;47.000;16.084;2024-03-02T12:09:10;14.00;99.90
1594;DHT22;790;47.000;16.084;2024-03-02T12:15:39;14.00;99.90
1594;DHT22;790;47.000;16.084;2024-03-02T12:22:01;14.20;99.90
1594;DHT22;790;47.000;16.084;2024-03-02T12:28:24;14.30;99.90
1594;DHT22;790;47.000;16.084;2024-03-02T12:34:51;14.50;99.90
1594;DHT22;790;47.000;16.084;2024-03-02T12:41:15;14.60;99.90
1594;DHT22;790;47.000;16.084;2024-03-02T12:47:37;14.70;99.90
1594;DHT22;790;47.000;16.084;2024-03-02T12:58:56;14.70;99.90
1594;DHT22;790;47.000;16.084;2024-03-02T13:05:18;14.70;99.90
1594;DHT22;790;47.000;16.084;2024-03-02T13:11:41;14.80;99.90
1594;DHT22;790;47.000;16.084;2024-03-02T13:18:07;14.80;99.90
1594;DHT22;790;47.000;16.084;2024-03-02T13:24:29;14.90;99.90
1594;DHT22;790;47.000;16.084;2024-03-02T13:30:51;15.00;99.90
1594;DHT22;790;47.000;16.084;2024-03-02T13:37:15;15.00;99.90
1594;DHT22;790;47.000;16.084;2024-03-02T13:43:36;15.00;99.90
1594;DHT22;790;47.000;16.084;2024-03-02T13:49:59;14.90;99.90
1594;DHT22;790;47.000;16.084;2024-03-02T14:01:18;15.00;99.90
1594;DHT22;790;47.000;16.084;2024-03-02T14:07:41;14.90;99.90
1594;DHT22;790;47.000;16.084;2024-03-02T14:14:12;14.90;99.90
1594;DHT22;790;47.000;16.084;2024-03-02T14:20:36;14.70;99.90
1594;DHT22;790;47.000;16.084;2024-03-02T14:26:58;14.80;99.90
1594;DHT22;790;47.000;16.084;2024-03-02T14:33:23;14.70;99.90
1594;DHT22;790;47.000;16.084;2024-03-02T14:39:47;14.50;99.90
1594;DHT22;790;47.000;16.084;2024-03-02T14:46:20;14.40;99.90
1594;DHT22;790;47.000;16.084;2024-03-02T14:52:41;14.30;99.90
1594;DHT22;790;47.000;16.084;2024-03-02T15:04:00;14.20;99.90
1594;DHT22;790;47.000;16.084;2024-03-02T15:10:22;14.00;99.90
1594;DHT22;790;47.000;16.084;2024-03-02T15:16:54;13.90;99.90
1594;DHT22;790;47.000;16.084;2024-03-02T15:23:19;13.70;99.90
1594;DHT22;790;47.000;16.084;2024-03-02T15:29:41;13.60;99.90
1594;DHT22;790;47.000;16.084;2024-03-02T15:36:04;13.50;99.90
1594;DHT22;790;47.000;16.084;2024-03-02T15:42:28;13.50;99.90
1594;DHT22;790;47.000;16.084;2024-03-02T15:48:50;13.20;99.90
1594;DHT22;790;47.000;16.084;2024-03-02T15:55:12;13.20;99.90
1594;DHT22;790;47.000;16.084;2024-03-02T16:06:10;13.00;99.90
1594;DHT22;790;47.000;16.084;2024-03-02T16:12:32;12.90;99.90
1594;DHT22;790;47.000;16.084;2024-03-02T16:18:54;12.70;99.90
1594;DHT22;790;47.000;16.084;2024-03-02T16:25:18;12.60;99.90
1594;DHT22;790;47.000;16.084;2024-03-02T16:31:40;12.40;99.90
1594;DHT22;790;47.000;16.084;2024-03-02T16:38:03;12.30;99.90
1594;DHT22;790;47.000;16.084;2024-03-02T16:44:26;12.30;99.90
1594;DHT22;790;47.000;16.084;2024-03-02T16:50:48;12.10;99.90
1594;DHT22;790;47.000;16.084;2024-03-02T16:57:10;11.90;99.90
1594;DHT22;790;47.000;16.084;2024-03-02T17:07:59;11.40;99.90
1594;DHT22;790;47.000;16.084;2024-03-02T17:14:20;11.00;99.90
1594;DHT22;790;47.000;16.084;2024-03-02T17:20:43;10.80;99.90
1594;DHT22;790;47.000;16.084;2024-03-02T17:27:07;10.50;99.90
1594;DHT22;790;47.000;16.084;2024-03-02T17:33:30;10.40;99.90
1594;DHT22;790;47.000;16.084;2024-03-02T17:39:53;10.30;99.90
1594;DHT22;790;47.000;16.084;2024-03-02T17:46:18;10.10;99.90
1594;DHT22;790;47.000;16.084;2024-03-02T17:52:41;9.90;99.90
1594;DHT22;790;47.000;16.084;2024-03-02T17:59:02;9.70;99.90
1594;DHT22;790;47.000;16.084;2024-03-02T18:09:50;9.40;99.90
1594;DHT22;790;47.000;16.084;2024-03-02T18:16:13;9.20;99.90
1594;DHT22;790;47.000;16.084;2024-03-02T18:22:35;9.10;99.90
1594;DHT22;790;47.000;16.084;2024-03-02T18:28:59;9.00;99.90
1594;DHT22;790;47.000;16.084;2024-03-02T18:35:21;8.70;99.90
1594;DHT22;790;47.000;16.084;2024-03-02T18:41:43;8.70;99.90
1594;DHT22;790;47.000;16.084;2024-03-02T18:48:07;8.70;99.90
1594;DHT22;790;47.000;16.084;2024-03-02T18:54:29;8.60;99.90
1594;DHT22;790;47.000;16.084;2024-03-02T19:00:51;8.50;99.90
1594;DHT22;790;47.000;16.084;2024-03-02T19:11:39;8.20;99.90
1594;DHT22;790;47.000;16.084;2024-03-02T19:18:02;8.10;99.90
1594;DHT22;790;47.000;16.084;2024-03-02T19:24:24;8.00;99.90
1594;DHT22;790;47.000;16.084;2024-03-02T19:30:49;8.00;99.90
1594;DHT22;790;47.000;16.084;2024-03-02T19:37:12;7.80;99.90
1594;DHT22;790;47.000;16.084;2024-03-02T19:43:35;7.80;99.90
1594;DHT22;790;47.000;16.084;2024-03-02T19:49:59;7.90;99.90
1594;DHT22;790;47.000;16.084;2024-03-02T19:56:25;8.00;99.90
1594;DHT22;790;47.000;16.084;2024-03-02T20:02:48;7.70;99.90
1594;DHT22;790;47.000;16.084;2024-03-02T20:13:37;7.50;99.90
1594;DHT22;790;47.000;16.084;2024-03-02T20:19:59;7.50;99.90
1594;DHT22;790;47.000;16.084;2024-03-02T20:26:21;7.50;99.90
1594;DHT22;790;47.000;16.084;2024-03-02T20:32:45;7.40;99.90
1594;DHT22;790;47.000;16.084;2024-03-02T20:39:06;7.50;99.90
1594;DHT22;790;47.000;16.084;2024-03-02T20:45:29;7.50;99.90
1594;DHT22;790;47.000;16.084;2024-03-02T20:51:53;7.60;99.90
1594;DHT22;790;47.000;16.084;2024-03-02T20:58:15;7.60;99.90
1594;DHT22;790;47.000;16.084;2024-03-02T21:04:38;7.50;99.90
1594;DHT22;790;47.000;16.084;2024-03-02T21:15:27;7.40;99.90
1594;DHT22;790;47.000;16.084;2024-03-02T21:21:50;7.40;99.90
1594;DHT22;790;47.000;16.084;2024-03-02T21:28:13;7.40;99.90
1594;DHT22;790;47.000;16.084;2024-03-02T21:34:36;7.40;99.90
1594;DHT22;790;47.000;16.084;2024-03-02T21:40:59;7.30;99.90
1594;DHT22;790;47.000;16.084;2024-03-02T21:47:21;7.20;99.90
1594;DHT22;790;47.000;16.084;2024-03-02T21:53:45;7.20;99.90
1594;DHT22;790;47.000;16.084;2024-03-02T22:00:08;7.20;99.90
1594;DHT22;790;47.000;16.084;2024-03-02T22:06:30;7.20;99.90
1594;DHT22;790;47.000;16.084;2024-03-02T22:17:19;7.30;99.90
1594;DHT22;790;47.000;16.084;2024-03-02T22:23:42;7.30;99.90
1594;DHT22;790;47.000;16.084;2024-03-02T22:30:05;7.30;99.90
1594;DHT22;790;47.000;16.084;2024-03-02T22:36:29;7.30;99.90
1594;DHT22;790;47.000;16.084;2024-03-02T22:42:51;7.40;99.90
1594;DHT22;790;47.000;16.084;2024-03-02T22:49:13;7.40;99.90
1594;DHT22;790;47.000;16.084;2024-03-02T22:55:37;7.50;99.90
1594;DHT22;790;47.000;16.084;2024-03-02T23:02:00;7.60;99.90
1594;DHT22;790;47.000;16.084;2024-03-02T23:08:23;7.70;99.90
1594;DHT22;790;47.000;16.084;2024-03-02T23:19:10;7.80;99.90
1594;DHT22;790;47.000;16.084;2024-03-02T23:26:03;7.80;99.90
1594;DHT22;790;47.000;16.084;2024-03-02T23:32:25;7.90;99.90
1594;DHT22;790;47.000;16.084;2024-03-02T23:38:50;7.90;99.90
1594;DHT22;790;47.000;16.084;2024-03-02T23:45:14;8.00;99.90
1594;DHT22;790;47.000;16.084;2024-03-02T23:51:36;8.10;99.90
1594;DHT22;790;47.000;16.084;2024-03-02T23:57:59;8.00;99.90
